createdAt,value
2024-02-03T00:00:12.189Z,98643.81
2024-02-03T00:02:40.108Z,98637.41
2024-02-03T00:05:06.983Z,98641.44
2024-02-03T00:07:33.670Z,98645.84
2024-02-03T00:10:00.479Z,98645.16
2024-02-03T00:12:30.564Z,98648.16
2024-02-03T00:14:58.533Z,98647.31
2024-02-03T00:17:28.533Z,98638.72
2024-02-03T00:19:58.128Z,98639.72
2024-02-03T00:22:24.929Z,98646.16
2024-02-03T00:24:51.867Z,98640.16
2024-02-03T00:27:19.422Z,98629.91
2024-02-03T00:29:46.283Z,98634.56
2024-02-03T00:32:13.255Z,98626.81
2024-02-03T00:34:40.101Z,98638.22
2024-02-03T00:37:06.936Z,98634.69
2024-02-03T00:39:33.581Z,98631.25
2024-02-03T00:42:00.351Z,98630.84
2024-02-03T00:44:27.042Z,98633.44
2024-02-03T00:46:53.775Z,98638.00
2024-02-03T00:49:20.761Z,98644.28
2024-02-03T00:51:47.826Z,98642.97
2024-02-03T00:54:14.842Z,98642.72
2024-02-03T00:56:41.520Z,98636.72
2024-02-03T00:59:08.242Z,98637.69
2024-02-03T01:01:35.191Z,98641.50
2024-02-03T01:04:02.436Z,98644.97
2024-02-03T01:06:29.259Z,98645.75
2024-02-03T01:08:55.953Z,98635.53
2024-02-03T01:11:22.753Z,98632.44
2024-02-03T01:13:49.505Z,98641.00
2024-02-03T01:16:17.292Z,98638.72
2024-02-03T01:18:44.628Z,98627.41
2024-02-03T01:21:23.921Z,98631.00
2024-02-03T01:23:50.726Z,98620.09
2024-02-03T01:26:17.563Z,98630.13
2024-02-03T01:28:44.282Z,98620.09
2024-02-03T01:31:12.510Z,98632.56
2024-02-03T01:33:39.354Z,98619.19
2024-02-03T01:36:06.733Z,98620.19
2024-02-03T01:38:33.442Z,98616.94
2024-02-03T01:41:00.176Z,98622.28
2024-02-03T01:43:26.934Z,98610.66
2024-02-03T01:45:54.543Z,98615.09
2024-02-03T01:48:21.676Z,98605.22
2024-02-03T01:50:51.085Z,98608.31
2024-02-03T01:53:19.329Z,98598.81
2024-02-03T01:55:46.666Z,98591.38
2024-02-03T01:58:13.378Z,98599.41
2024-02-03T02:00:40.713Z,98597.44
2024-02-03T02:03:07.652Z,98594.34
2024-02-03T02:05:34.753Z,98595.41
2024-02-03T02:08:02.282Z,98591.56
2024-02-03T02:10:31.480Z,98587.16
2024-02-03T02:12:58.323Z,98589.19
2024-02-03T02:15:25.359Z,98591.03
2024-02-03T02:18:02.385Z,98583.69
2024-02-03T02:20:29.258Z,98576.69
2024-02-03T02:22:56.043Z,98585.94
2024-02-03T02:25:23.092Z,98591.56
2024-02-03T02:27:53.925Z,98586.84
2024-02-03T02:30:21.696Z,98586.84
2024-02-03T02:32:48.642Z,98583.28
2024-02-03T02:35:15.432Z,98580.56
2024-02-03T02:37:42.164Z,98575.13
2024-02-03T02:40:10.248Z,98581.16
2024-02-03T02:42:37.522Z,98577.41
2024-02-03T02:45:05.247Z,98577.16
2024-02-03T02:47:32.164Z,98577.16
2024-02-03T02:49:59.024Z,98570.41
2024-02-03T02:52:25.800Z,98570.06
2024-02-03T02:54:52.782Z,98570.59
2024-02-03T02:57:19.581Z,98563.50
2024-02-03T02:59:46.371Z,98563.88
2024-02-03T03:02:13.195Z,98565.66
2024-02-03T03:04:39.975Z,98567.31
2024-02-03T03:07:06.855Z,98577.25
2024-02-03T03:09:33.642Z,98581.13
2024-02-03T03:12:00.482Z,98583.84
2024-02-03T03:14:27.163Z,98585.63
2024-02-03T03:16:53.891Z,98584.78
2024-02-03T03:19:20.677Z,98602.78
2024-02-03T03:21:47.499Z,98608.88
2024-02-03T03:24:14.496Z,98597.22
2024-02-03T03:26:45.650Z,98601.06
2024-02-03T03:29:16.836Z,98597.41
2024-02-03T03:31:43.996Z,98608.81
2024-02-03T03:34:10.980Z,98608.66
2024-02-03T03:36:37.942Z,98607.06
2024-02-03T03:39:05.297Z,98601.78
2024-02-03T03:41:31.886Z,98606.34
2024-02-03T03:43:58.592Z,98605.06
2024-02-03T03:46:25.149Z,98603.78
2024-02-03T03:48:51.927Z,98602.19
2024-02-03T03:51:18.651Z,98607.41
2024-02-03T03:53:45.286Z,98611.16
2024-02-03T03:56:12.094Z,98610.09
2024-02-03T03:58:39.000Z,98611.47
2024-02-03T04:01:05.805Z,98622.88
2024-02-03T04:03:32.553Z,98619.75
2024-02-03T04:05:59.269Z,98617.63
2024-02-03T04:08:26.342Z,98619.84
2024-02-03T04:10:53.014Z,98628.34
2024-02-03T04:13:20.036Z,98630.00
2024-02-03T04:15:47.083Z,98629.13
2024-02-03T04:18:13.904Z,98627.38
2024-02-03T04:20:40.633Z,98624.75
2024-02-03T04:23:10.085Z,98628.06
2024-02-03T04:25:36.685Z,98607.41
2024-02-03T04:28:03.608Z,98618.25
2024-02-03T04:30:30.444Z,98619.28
2024-02-03T04:32:57.301Z,98618.41
2024-02-03T04:35:24.530Z,98609.13
2024-02-03T04:37:51.147Z,98612.97
2024-02-03T04:40:17.804Z,98610.97
2024-02-03T04:42:44.589Z,98612.63
2024-02-03T04:45:11.587Z,98604.81
2024-02-03T04:47:38.519Z,98605.22
2024-02-03T04:50:07.409Z,98612.03
2024-02-03T04:52:34.117Z,98608.91
2024-02-03T04:55:00.963Z,98607.72
2024-02-03T04:57:27.594Z,98609.84
2024-02-03T04:59:54.197Z,98608.19
2024-02-03T05:02:20.823Z,98611.22
2024-02-03T05:04:47.714Z,98610.19
2024-02-03T05:07:14.551Z,98611.53
2024-02-03T05:09:42.735Z,98618.69
2024-02-03T05:12:10.156Z,98612.25
2024-02-03T05:14:36.845Z,98614.34
2024-02-03T05:17:03.600Z,98604.56
2024-02-03T05:19:30.488Z,98607.56
2024-02-03T05:21:57.388Z,98610.47
2024-02-03T05:24:24.240Z,98604.78
2024-02-03T05:26:50.940Z,98605.31
2024-02-03T05:29:18.021Z,98607.75
2024-02-03T05:31:44.664Z,98608.19
2024-02-03T05:34:11.926Z,98621.41
2024-02-03T05:36:38.905Z,98624.56
2024-02-03T05:39:05.649Z,98618.16
2024-02-03T05:41:32.271Z,98618.78
2024-02-03T05:43:59.195Z,98627.53
2024-02-03T05:46:25.845Z,98623.63
2024-02-03T05:48:52.508Z,98615.91
2024-02-03T05:51:20.703Z,98613.13
2024-02-03T05:53:47.381Z,98619.34
2024-02-03T05:56:14.050Z,98619.16
2024-02-03T05:58:40.862Z,98623.69
2024-02-03T06:01:10.096Z,98626.41
2024-02-03T06:03:36.927Z,98640.22
2024-02-03T06:06:19.606Z,98635.41
2024-02-03T06:08:50.264Z,98626.94
2024-02-03T06:11:17.007Z,98622.91
2024-02-03T06:13:43.601Z,98632.63
2024-02-03T06:16:10.184Z,98637.34
2024-02-03T06:18:38.165Z,98645.91
2024-02-03T06:21:05.143Z,98647.25
2024-02-03T06:23:31.736Z,98649.00
2024-02-03T06:25:58.320Z,98646.97
2024-02-03T06:28:26.207Z,98658.34
2024-02-03T06:30:52.850Z,98645.41
2024-02-03T06:33:19.627Z,98649.25
2024-02-03T06:35:46.412Z,98653.56
2024-02-03T06:38:13.140Z,98652.91
2024-02-03T06:40:39.798Z,98655.84
2024-02-03T06:43:06.411Z,98658.09
2024-02-03T06:45:34.326Z,98654.41
2024-02-03T06:48:01.107Z,98669.19
2024-02-03T06:50:27.748Z,98666.47
2024-02-03T06:52:54.366Z,98665.69
2024-02-03T06:55:21.008Z,98671.31
2024-02-03T06:57:47.709Z,98674.56
2024-02-03T07:00:14.770Z,98667.03
2024-02-03T07:02:41.580Z,98669.75
2024-02-03T07:05:08.855Z,98675.00
2024-02-03T07:07:35.636Z,98677.97
2024-02-03T07:10:02.905Z,98679.00
2024-02-03T07:12:29.571Z,98679.16
2024-02-03T07:14:56.213Z,98675.06
2024-02-03T07:17:23.115Z,98676.47
2024-02-03T07:19:49.956Z,98671.56
2024-02-03T07:22:16.667Z,98676.88
2024-02-03T07:24:43.465Z,98676.53
2024-02-03T07:27:11.036Z,98683.09
2024-02-03T07:29:40.435Z,98683.34
2024-02-03T07:32:07.749Z,98685.81
2024-02-03T07:34:34.959Z,98682.66
2024-02-03T07:37:03.127Z,98686.06
2024-02-03T07:39:30.073Z,98682.13
2024-02-03T07:41:56.768Z,98687.56
2024-02-03T07:44:23.433Z,98692.34
2024-02-03T07:46:50.064Z,98698.84
2024-02-03T07:49:17.121Z,98687.31
2024-02-03T07:51:44.116Z,98686.34
2024-02-03T07:54:10.904Z,98688.16
2024-02-03T07:56:37.558Z,98691.56
2024-02-03T07:59:04.164Z,98690.03
2024-02-03T08:01:30.925Z,98690.84
2024-02-03T08:03:57.753Z,98688.34
2024-02-03T08:06:24.648Z,98694.81
2024-02-03T08:08:51.532Z,98690.47
2024-02-03T08:11:18.138Z,98691.06
2024-02-03T08:13:47.751Z,98681.69
2024-02-03T08:16:14.334Z,98689.91
2024-02-03T08:18:42.310Z,98678.75
2024-02-03T08:21:09.097Z,98691.00
2024-02-03T08:23:36.394Z,98684.34
2024-02-03T08:26:03.033Z,98686.22
2024-02-03T08:28:30.146Z,98680.47
2024-02-03T08:30:56.925Z,98699.44
2024-02-03T08:33:24.247Z,98693.28
2024-02-03T08:35:51.114Z,98688.84
2024-02-03T08:38:17.965Z,98684.38
2024-02-03T08:40:47.869Z,98688.44
2024-02-03T08:43:14.674Z,98689.91
2024-02-03T08:45:41.378Z,98700.06
2024-02-03T08:48:08.147Z,98683.41
2024-02-03T08:50:35.372Z,98683.97
2024-02-03T08:53:02.439Z,98680.63
2024-02-03T08:55:29.824Z,98683.06
2024-02-03T08:57:56.981Z,98688.94
2024-02-03T09:00:24.188Z,98688.19
2024-02-03T09:02:50.912Z,98675.91
2024-02-03T09:05:17.780Z,98685.19
2024-02-03T09:07:44.655Z,98685.19
2024-02-03T09:10:11.535Z,98686.75
2024-02-03T09:12:38.338Z,98682.44
2024-02-03T09:15:05.430Z,98684.78
2024-02-03T09:17:32.278Z,98683.50
2024-02-03T09:19:59.076Z,98690.41
2024-02-03T09:22:25.780Z,98682.50
2024-02-03T09:24:52.879Z,98685.41
2024-02-03T09:27:19.596Z,98694.75
2024-02-03T09:29:46.289Z,98691.91
2024-02-03T09:32:12.936Z,98692.72
2024-02-03T09:34:39.691Z,98700.25
2024-02-03T09:39:38.467Z,98692.31
2024-02-03T09:42:06.220Z,98693.81
2024-02-03T09:44:33.160Z,98694.06
2024-02-03T09:46:59.918Z,98696.06
2024-02-03T09:49:27.047Z,98687.47
2024-02-03T09:51:54.174Z,98692.97
2024-02-03T09:54:22.123Z,98705.97
2024-02-03T09:56:48.814Z,98689.84
2024-02-03T09:59:16.095Z,98687.06
2024-02-03T10:01:47.030Z,98691.50
2024-02-03T10:04:14.419Z,98695.47
2024-02-03T10:06:46.147Z,98693.81
2024-02-03T10:09:25.271Z,98703.16
2024-02-03T10:11:52.960Z,98696.50
2024-02-03T10:14:19.883Z,98703.94
2024-02-03T10:16:48.006Z,98705.38
2024-02-03T10:19:14.863Z,98704.13
2024-02-03T10:21:41.764Z,98690.69
2024-02-03T10:24:09.127Z,98695.28
2024-02-03T10:26:36.677Z,98689.66
2024-02-03T10:29:03.704Z,98689.41
2024-02-03T10:31:30.629Z,98690.63
2024-02-03T10:34:04.468Z,98681.81
2024-02-03T10:36:31.200Z,98691.91
2024-02-03T10:38:57.882Z,98674.91
2024-02-03T10:41:31.418Z,98678.09
2024-02-03T10:44:02.445Z,98664.53
2024-02-03T10:46:31.914Z,98663.28
2024-02-03T10:49:02.363Z,98663.81
2024-02-03T10:51:32.307Z,98662.81
2024-02-03T10:54:09.783Z,98651.38
2024-02-03T10:56:38.799Z,98657.94
2024-02-03T10:59:07.413Z,98658.84
2024-02-03T11:01:35.939Z,98657.59
2024-02-03T11:04:05.828Z,98647.75
2024-02-03T11:06:34.271Z,98638.47
2024-02-03T11:09:22.296Z,98626.09
2024-02-03T11:11:54.445Z,98631.50
2024-02-03T11:14:23.743Z,98625.38
2024-02-03T11:16:55.005Z,98635.06
2024-02-03T11:19:30.318Z,98632.75
2024-02-03T11:21:58.732Z,98636.75
2024-02-03T11:24:26.008Z,98636.34
2024-02-03T11:26:59.984Z,98634.28
2024-02-03T11:29:27.228Z,98639.03
2024-02-03T11:32:00.164Z,98630.56
2024-02-03T11:34:29.247Z,98637.72
2024-02-03T11:36:56.436Z,98631.19
2024-02-03T11:39:33.489Z,98630.94
2024-02-03T11:42:00.309Z,98619.03
2024-02-03T11:44:37.682Z,98618.06
2024-02-03T11:47:08.778Z,98625.81
2024-02-03T11:49:35.852Z,98628.81
2024-02-03T11:52:03.610Z,98622.19
2024-02-03T11:54:30.335Z,98627.94
2024-02-03T11:56:57.091Z,98629.00
2024-02-03T11:59:30.630Z,98635.06
2024-02-03T12:01:58.051Z,98635.00
2024-02-03T12:04:26.102Z,98636.72
2024-02-03T12:06:55.433Z,98635.91
2024-02-03T12:09:22.532Z,98624.97
2024-02-03T12:11:53.598Z,98634.63
2024-02-03T12:14:21.337Z,98627.53
2024-02-03T12:16:49.187Z,98633.81
2024-02-03T12:19:16.503Z,98618.13
2024-02-03T12:21:44.997Z,98619.00
2024-02-03T12:24:12.152Z,98615.91
2024-02-03T12:26:40.672Z,98604.09
2024-02-03T12:29:07.536Z,98618.06
2024-02-03T12:31:34.209Z,98620.19
2024-02-03T12:34:01.078Z,98617.91
2024-02-03T12:36:29.877Z,98614.31
2024-02-03T12:38:58.896Z,98619.00
2024-02-03T12:41:26.665Z,98611.16
2024-02-03T12:43:53.423Z,98607.28
2024-02-03T12:46:21.402Z,98604.19
2024-02-03T12:48:48.616Z,98613.94
2024-02-03T12:51:15.909Z,98605.03
2024-02-03T12:53:42.885Z,98607.94
2024-02-03T12:56:09.646Z,98613.53
2024-02-03T12:58:36.421Z,98615.56
2024-02-03T13:01:04.718Z,98609.94
2024-02-03T13:03:31.650Z,98607.22
2024-02-03T13:05:58.473Z,98604.56
2024-02-03T13:08:25.100Z,98599.56
2024-02-03T13:10:51.777Z,98608.72
2024-02-03T13:13:18.496Z,98610.66
2024-02-03T13:15:45.214Z,98602.94
2024-02-03T13:18:11.842Z,98607.63
2024-02-03T13:20:38.486Z,98605.44
2024-02-03T13:23:05.071Z,98611.16
2024-02-03T13:25:31.875Z,98609.38
2024-02-03T13:27:58.744Z,98609.72
2024-02-03T13:30:25.492Z,98616.91
2024-02-03T13:32:52.232Z,98616.88
2024-02-03T13:35:20.648Z,98624.97
2024-02-03T13:37:47.710Z,98621.78
2024-02-03T13:40:14.399Z,98615.56
2024-02-03T13:42:55.593Z,98618.03
2024-02-03T13:45:22.342Z,98614.00
2024-02-03T13:47:51.319Z,98620.81
2024-02-03T13:50:20.071Z,98618.53
2024-02-03T13:52:47.477Z,98621.66
2024-02-03T13:55:14.506Z,98609.19
2024-02-03T13:57:41.446Z,98613.06
2024-02-03T14:00:09.198Z,98616.75
2024-02-03T14:02:38.563Z,98620.75
2024-02-03T14:05:06.177Z,98622.22
2024-02-03T14:07:32.929Z,98617.84
2024-02-03T14:09:59.682Z,98629.34
2024-02-03T14:12:26.474Z,98626.63
2024-02-03T14:14:53.197Z,98632.03
2024-02-03T14:17:20.744Z,98631.91
2024-02-03T14:19:47.674Z,98630.13
2024-02-03T14:22:15.407Z,98629.44
2024-02-03T14:24:42.937Z,98612.25
2024-02-03T14:27:10.691Z,98615.44
2024-02-03T14:29:37.531Z,98618.31
2024-02-03T14:32:05.898Z,98618.81
2024-02-03T14:34:33.087Z,98613.19
2024-02-03T14:37:00.549Z,98604.59
2024-02-03T14:39:27.688Z,98603.28
2024-02-03T14:41:55.363Z,98602.81
2024-02-03T14:44:22.631Z,98612.72
2024-02-03T14:46:49.346Z,98602.13
2024-02-03T14:49:17.393Z,98606.66
2024-02-03T14:51:44.907Z,98596.69
2024-02-03T14:54:12.785Z,98598.94
2024-02-03T14:56:39.411Z,98608.53
2024-02-03T14:59:06.035Z,98600.97
2024-02-03T15:01:32.940Z,98600.03
2024-02-03T15:03:59.766Z,98588.34
2024-02-03T15:06:26.507Z,98584.56
2024-02-03T15:08:53.464Z,98585.22
2024-02-03T15:11:20.124Z,98590.22
2024-02-03T15:13:46.711Z,98586.31
2024-02-03T15:16:13.505Z,98585.50
2024-02-03T15:18:40.274Z,98586.31
2024-02-03T15:21:07.251Z,98588.91
2024-02-03T15:23:33.938Z,98580.44
2024-02-03T15:26:00.568Z,98576.63
2024-02-03T15:28:29.713Z,98565.81
2024-02-03T15:30:58.523Z,98562.59
2024-02-03T15:33:25.426Z,98573.41
2024-02-03T15:35:52.156Z,98567.22
2024-02-03T15:38:18.809Z,98574.19
2024-02-03T15:40:45.518Z,98568.75
2024-02-03T15:43:12.212Z,98563.19
2024-02-03T15:45:38.939Z,98559.38
2024-02-03T15:48:06.387Z,98555.41
2024-02-03T15:50:34.342Z,98564.06
2024-02-03T15:53:01.020Z,98553.94
2024-02-03T15:55:29.875Z,98556.56
2024-02-03T15:57:57.663Z,98555.69
2024-02-03T16:00:24.504Z,98555.34
2024-02-03T16:02:51.336Z,98546.03
2024-02-03T16:05:18.037Z,98541.28
2024-02-03T16:07:44.770Z,98549.91
2024-02-03T16:10:14.292Z,98539.72
2024-02-03T16:12:42.138Z,98542.09
2024-02-03T16:15:09.893Z,98546.69
2024-02-03T16:17:36.762Z,98553.59
2024-02-03T16:20:06.583Z,98550.91
2024-02-03T16:22:33.927Z,98543.38
2024-02-03T16:25:01.147Z,98548.94
2024-02-03T16:27:28.585Z,98551.28
2024-02-03T16:29:55.478Z,98550.50
2024-02-03T16:32:23.325Z,98542.72
2024-02-03T16:34:50.010Z,98558.56
2024-02-03T16:37:18.813Z,98550.97
2024-02-03T16:39:45.630Z,98560.66
2024-02-03T16:42:12.487Z,98556.03
2024-02-03T16:44:39.304Z,98559.75
2024-02-03T16:47:06.077Z,98558.97
2024-02-03T16:49:33.012Z,98553.94
2024-02-03T16:51:59.906Z,98545.41
2024-02-03T16:54:26.665Z,98555.09
2024-02-03T16:56:53.301Z,98541.41
2024-02-03T16:59:19.885Z,98551.06
2024-02-03T17:01:47.264Z,98547.19
2024-02-03T17:04:20.206Z,98559.00
2024-02-03T17:06:49.492Z,98554.19
2024-02-03T17:09:17.959Z,98547.97
2024-02-03T17:11:44.749Z,98550.31
2024-02-03T17:14:11.492Z,98548.78
2024-02-03T17:16:38.225Z,98548.00
2024-02-03T17:19:07.473Z,98549.50
2024-02-03T17:21:34.412Z,98558.81
2024-02-03T17:24:02.196Z,98559.56
2024-02-03T17:26:29.243Z,98555.19
2024-02-03T17:28:56.095Z,98558.78
2024-02-03T17:31:22.825Z,98556.44
2024-02-03T17:33:49.818Z,98554.84
2024-02-03T17:36:16.658Z,98552.56
2024-02-03T17:38:43.290Z,98563.53
2024-02-03T17:41:10.164Z,98556.16
2024-02-03T17:43:36.768Z,98556.53
2024-02-03T17:46:03.749Z,98558.13
2024-02-03T17:48:30.578Z,98552.56
2024-02-03T17:50:57.263Z,98545.56
2024-02-03T17:53:23.854Z,98545.63
2024-02-03T17:55:50.599Z,98545.19
2024-02-03T17:58:17.273Z,98551.00
2024-02-03T18:00:44.061Z,98544.00
2024-02-03T18:03:11.007Z,98551.47
2024-02-03T18:05:37.657Z,98544.44
2024-02-03T18:08:04.736Z,98549.78
2024-02-03T18:10:31.940Z,98544.66
2024-02-03T18:12:58.581Z,98554.00
2024-02-03T18:15:26.278Z,98539.88
2024-02-03T18:17:53.319Z,98542.13
2024-02-03T18:20:20.439Z,98541.25
2024-02-03T18:22:47.943Z,98549.75
2024-02-03T18:25:14.674Z,98555.88
2024-02-03T18:27:41.411Z,98563.22
2024-02-03T18:30:08.694Z,98574.03
2024-02-03T18:32:35.953Z,98567.22
2024-02-03T18:35:04.305Z,98569.81
2024-02-03T18:37:30.885Z,98569.69
2024-02-03T18:39:57.905Z,98574.41
2024-02-03T18:42:25.579Z,98577.09
2024-02-03T18:44:52.611Z,98573.09
2024-02-03T18:47:19.304Z,98569.25
2024-02-03T18:49:46.416Z,98576.03
2024-02-03T18:52:13.169Z,98576.47
2024-02-03T18:54:39.862Z,98573.53
2024-02-03T18:57:06.518Z,98573.94
2024-02-03T18:59:33.119Z,98573.94
2024-02-03T19:01:59.703Z,98572.47
2024-02-03T19:04:26.453Z,98567.88
2024-02-03T19:06:53.610Z,98565.59
2024-02-03T19:09:24.403Z,98568.84
2024-02-03T19:11:51.405Z,98566.22
2024-02-03T19:14:21.181Z,98561.88
2024-02-03T19:16:48.023Z,98553.84
2024-02-03T19:19:14.726Z,98554.63
2024-02-03T19:21:42.241Z,98558.94
2024-02-03T19:24:09.020Z,98565.16
2024-02-03T19:26:35.666Z,98567.16
2024-02-03T19:29:02.379Z,98569.50
2024-02-03T19:31:29.052Z,98563.88
2024-02-03T19:33:55.731Z,98566.31
2024-02-03T19:36:22.482Z,98562.44
2024-02-03T19:38:49.140Z,98577.63
2024-02-03T19:41:18.365Z,98571.22
2024-02-03T19:43:45.428Z,98569.66
2024-02-03T19:46:12.089Z,98570.84
2024-02-03T19:48:38.868Z,98578.75
2024-02-03T19:51:07.179Z,98567.47
2024-02-03T19:53:34.201Z,98574.88
2024-02-03T19:56:00.832Z,98580.41
2024-02-03T19:58:27.565Z,98570.69
2024-02-03T20:00:54.658Z,98569.41
2024-02-03T20:03:22.934Z,98566.28
2024-02-03T20:05:49.617Z,98558.09
2024-02-03T20:08:16.545Z,98563.69
2024-02-03T20:10:43.390Z,98559.75
2024-02-03T20:13:10.338Z,98562.00
2024-02-03T20:15:37.073Z,98552.69
2024-02-03T20:18:04.429Z,98546.53
2024-02-03T20:20:31.853Z,98546.16
2024-02-03T20:22:59.011Z,98538.25
2024-02-03T20:25:25.989Z,98530.84
2024-02-03T20:27:53.147Z,98538.63
2024-02-03T20:30:19.999Z,98535.19
2024-02-03T20:32:46.713Z,98536.06
2024-02-03T20:35:14.457Z,98544.94
2024-02-03T20:37:41.407Z,98544.28
2024-02-03T20:40:09.088Z,98534.94
2024-02-03T20:42:35.748Z,98537.94
2024-02-03T20:45:02.375Z,98544.19
2024-02-03T20:47:29.400Z,98543.50
2024-02-03T20:49:58.676Z,98552.84
2024-02-03T20:52:29.297Z,98540.84
2024-02-03T20:54:56.161Z,98545.81
2024-02-03T20:57:22.930Z,98552.44
2024-02-03T20:59:51.351Z,98552.06
2024-02-03T21:02:18.245Z,98540.84
2024-02-03T21:04:45.351Z,98541.53
2024-02-03T21:07:16.807Z,98544.94
2024-02-03T21:09:44.262Z,98540.31
2024-02-03T21:12:10.916Z,98538.78
2024-02-03T21:14:37.729Z,98537.53
2024-02-03T21:17:04.665Z,98534.03
2024-02-03T21:19:31.705Z,98524.72
2024-02-03T21:21:58.470Z,98537.09
2024-02-03T21:24:25.166Z,98536.75
2024-02-03T21:26:56.486Z,98529.38
2024-02-03T21:29:23.191Z,98510.66
2024-02-03T21:31:49.814Z,98512.13
2024-02-03T21:34:16.701Z,98515.81
2024-02-03T21:36:43.540Z,98518.38
2024-02-03T21:39:11.831Z,98523.16
2024-02-03T21:41:40.038Z,98522.75
2024-02-03T21:44:06.979Z,98517.66
2024-02-03T21:46:34.110Z,98512.97
2024-02-03T21:49:01.009Z,98502.00
2024-02-03T21:51:28.458Z,98509.81
2024-02-03T21:53:55.078Z,98499.66
2024-02-03T21:56:22.186Z,98507.81
2024-02-03T21:58:49.124Z,98513.69
2024-02-03T22:01:15.900Z,98519.16
2024-02-03T22:03:42.634Z,98514.53
2024-02-03T22:06:09.660Z,98513.69
2024-02-03T22:08:36.654Z,98507.44
2024-02-03T22:11:03.471Z,98499.34
2024-02-03T22:13:30.098Z,98501.28
2024-02-03T22:15:56.779Z,98505.09
2024-02-03T22:18:23.970Z,98507.06
2024-02-03T22:20:50.693Z,98507.47
2024-02-03T22:23:17.322Z,98510.63
2024-02-03T22:25:43.907Z,98507.00
2024-02-03T22:28:10.880Z,98512.03
2024-02-03T22:30:37.679Z,98518.59
2024-02-03T22:33:05.337Z,98524.19
2024-02-03T22:35:33.191Z,98500.81
2024-02-03T22:37:59.977Z,98515.19
2024-02-03T22:40:26.747Z,98521.53
2024-02-03T22:42:54.062Z,98522.69
2024-02-03T22:45:21.348Z,98518.34
2024-02-03T22:47:51.365Z,98505.91
2024-02-03T22:50:18.496Z,98496.63
2024-02-03T22:52:45.432Z,98499.84
2024-02-03T22:55:12.163Z,98505.34
2024-02-03T22:57:39.214Z,98491.44
2024-02-03T23:00:29.936Z,98497.19
2024-02-03T23:02:56.957Z,98493.75
2024-02-03T23:05:23.733Z,98482.06
2024-02-03T23:07:50.531Z,98484.72
2024-02-03T23:10:17.118Z,98492.28
2024-02-03T23:12:43.851Z,98493.03
2024-02-03T23:15:11.123Z,98495.34
2024-02-03T23:17:39.386Z,98494.44
2024-02-03T23:20:06.990Z,98488.31
2024-02-03T23:22:33.600Z,98482.75
2024-02-03T23:25:03.242Z,98482.84
2024-02-03T23:27:29.914Z,98490.09
2024-02-03T23:29:56.573Z,98495.13
2024-02-03T23:32:23.247Z,98499.13
2024-02-03T23:34:50.116Z,98507.66
2024-02-03T23:37:16.980Z,98511.69
2024-02-03T23:39:44.355Z,98518.25
2024-02-03T23:42:10.933Z,98519.03
2024-02-03T23:44:37.680Z,98507.72
2024-02-03T23:47:05.370Z,98495.56
2024-02-03T23:49:32.062Z,98502.97
2024-02-03T23:51:58.826Z,98502.16
2024-02-03T23:54:25.432Z,98484.97
2024-02-03T23:56:52.062Z,98475.59
2024-02-03T23:59:18.756Z,98466.31
